Time;durP1;ratioP1;P1;durP2;ratioP2;P2;SDS_P1;SDS_P2;PMS_P1;PMS_P2;Temp;Humidity;BMP_temperature;BMP_pressure;BME280_temperature;BME280_humidity;BME280_pressure;Samples;Min_cycle;Max_cycle;Signal;HPM_P1;HPM_P2
2023/07/22 00:01:17;;;;;;;11.05;6.18;;;;;;;;;;5032662;28;20109;-64
2023/07/22 00:03:43;;;;;;;10.57;6.38;;;;;;;;;;5046275;28;20029;-65
2023/07/22 00:06:10;;;;;;;11.30;6.38;;;;;;;;;;5039379;28;20149;-67
2023/07/22 00:08:37;;;;;;;10.10;6.72;;;;;;;;;;5044613;28;20103;-62
2023/07/22 00:11:04;;;;;;;13.18;6.55;;;;;;;;;;5049291;28;20029;-62
2023/07/22 00:13:30;;;;;;;10.73;6.57;;;;;;;;;;5048705;28;20448;-62
2023/07/22 00:15:56;;;;;;;9.13;6.80;;;;;;;;;;5042594;28;20040;-62
2023/07/22 00:18:23;;;;;;;12.00;6.38;;;;;;;;;;5047953;28;20029;-62
2023/07/22 00:20:49;;;;;;;11.50;6.68;;;;;;;;;;5055250;28;20044;-62
2023/07/22 00:23:16;;;;;;;12.07;6.22;;;;;;;;;;5045429;28;20434;-62
2023/07/22 00:25:42;;;;;;;11.10;6.53;;;;;;;;;;5050442;28;20024;-62
2023/07/22 00:28:07;;;;;;;12.48;6.72;;;;;;;;;;5036832;28;20504;-67
2023/07/22 00:30:33;;;;;;;10.35;6.20;;;;;;;;;;5047586;28;20044;-62
2023/07/22 00:32:58;;;;;;;12.05;6.60;;;;;;;;;;5034437;28;20049;-62
2023/07/22 00:35:23;;;;;;;11.52;6.25;;;;;;;;;;5043382;28;20025;-62
2023/07/22 00:37:49;;;;;;;10.32;6.45;;;;;;;;;;5045065;28;20327;-61
2023/07/22 00:40:15;;;;;;;12.27;7.05;;;;;;;;;;5048787;28;20079;-62
2023/07/22 00:42:41;;;;;;;10.43;6.70;;;;;;;;;;5053504;28;20039;-62
2023/07/22 00:45:07;;;;;;;12.80;6.38;;;;;;;;;;5042453;28;20124;-66
2023/07/22 00:47:34;;;;;;;11.55;6.15;;;;;;;;;;5053831;28;20115;-62
2023/07/22 00:50:21;;;;;;;12.63;6.63;;;;;;;;;;5035524;28;20091;-62
2023/07/22 00:52:47;;;;;;;14.05;6.90;;;;;;;;;;5039558;28;20037;-62
2023/07/22 00:55:12;;;;;;;11.82;6.82;;;;;;;;;;5041637;28;20022;-65
2023/07/22 00:57:38;;;;;;;10.23;6.88;;;;;;;;;;5052903;28;20035;-62
2023/07/22 01:00:05;;;;;;;13.35;7.03;;;;;;;;;;5046868;28;20041;-62
2023/07/22 01:02:31;;;;;;;11.95;7.25;;;;;;;;;;5033210;28;20067;-62
2023/07/22 01:04:56;;;;;;;12.70;7.35;;;;;;;;;;5036051;28;20069;-63
2023/07/22 01:07:21;;;;;;;10.70;7.30;;;;;;;;;;5036490;28;20033;-62
2023/07/22 01:09:47;;;;;;;12.70;6.95;;;;;;;;;;5044642;28;20133;-62
2023/07/22 01:12:13;;;;;;;12.77;7.07;;;;;;;;;;5035581;28;20063;-66
2023/07/22 01:14:43;;;;;;;12.60;7.38;;;;;;;;;;5050069;28;20033;-61
2023/07/22 01:17:11;;;;;;;14.10;7.28;;;;;;;;;;5044553;28;20037;-66
2023/07/22 01:19:36;;;;;;;11.63;7.30;;;;;;;;;;5048681;28;20171;-66
2023/07/22 01:22:04;;;;;;;12.68;7.20;;;;;;;;;;5033512;28;20495;-62
2023/07/22 01:24:30;;;;;;;13.82;7.28;;;;;;;;;;5038819;28;20040;-62
2023/07/22 01:26:56;;;;;;;12.73;7.57;;;;;;;;;;5038808;28;20037;-63
2023/07/22 01:29:22;;;;;;;13.48;7.28;;;;;;;;;;5047100;28;20040;-62
2023/07/22 01:31:50;;;;;;;13.63;7.13;;;;;;;;;;5036779;28;20031;-63
2023/07/22 01:34:16;;;;;;;12.52;6.93;;;;;;;;;;5044307;28;20037;-65
2023/07/22 01:36:43;;;;;;;11.65;7.50;;;;;;;;;;5054600;28;20051;-63
2023/07/22 01:39:08;;;;;;;10.73;6.93;;;;;;;;;;5053696;28;20033;-63
2023/07/22 01:41:34;;;;;;;15.30;7.32;;;;;;;;;;5050334;28;20042;-62
2023/07/22 01:43:59;;;;;;;11.02;6.90;;;;;;;;;;5050262;28;20075;-62
2023/07/22 01:46:25;;;;;;;11.98;7.30;;;;;;;;;;5034188;28;20033;-62
2023/07/22 01:48:51;;;;;;;13.15;7.18;;;;;;;;;;5032978;28;20339;-62
2023/07/22 01:51:16;;;;;;;11.18;7.00;;;;;;;;;;5032113;28;20025;-63
2023/07/22 01:53:41;;;;;;;13.70;7.80;;;;;;;;;;5032431;28;20128;-62
2023/07/22 01:56:07;;;;;;;11.27;7.10;;;;;;;;;;5036482;28;20024;-63
2023/07/22 01:58:33;;;;;;;13.30;7.10;;;;;;;;;;5041412;28;20040;-63
2023/07/22 02:00:58;;;;;;;12.73;7.63;;;;;;;;;;5043843;28;20446;-63
2023/07/22 02:03:23;;;;;;;11.20;7.15;;;;;;;;;;5044048;28;20034;-63
2023/07/22 02:05:49;;;;;;;12.98;6.90;;;;;;;;;;5037879;28;20078;-62
2023/07/22 02:08:14;;;;;;;15.52;7.20;;;;;;;;;;5046710;28;20129;-67
2023/07/22 02:10:42;;;;;;;11.00;6.90;;;;;;;;;;5048350;28;20056;-62
2023/07/22 02:13:07;;;;;;;11.50;6.85;;;;;;;;;;5049745;28;20041;-63
2023/07/22 02:15:34;;;;;;;11.73;7.63;;;;;;;;;;5050532;28;20056;-65
2023/07/22 02:18:00;;;;;;;13.75;7.35;;;;;;;;;;5044610;28;20032;-62
2023/07/22 02:20:28;;;;;;;12.10;7.28;;;;;;;;;;5044128;28;20025;-63
2023/07/22 02:22:54;;;;;;;11.95;7.30;;;;;;;;;;5031636;28;20033;-62
2023/07/22 02:25:19;;;;;;;11.32;6.85;;;;;;;;;;5030453;28;20477;-62
2023/07/22 02:27:46;;;;;;;16.25;7.00;;;;;;;;;;5033607;28;20115;-62
2023/07/22 02:30:11;;;;;;;11.75;6.90;;;;;;;;;;5045573;28;20102;-62
2023/07/22 02:32:40;;;;;;;12.27;7.05;;;;;;;;;;5051800;28;20517;-62
2023/07/22 02:35:07;;;;;;;12.02;6.75;;;;;;;;;;5042986;28;20405;-64
2023/07/22 02:37:34;;;;;;;9.57;6.60;;;;;;;;;;5036785;28;20040;-63
2023/07/22 02:39:59;;;;;;;10.98;6.80;;;;;;;;;;5039392;28;20037;-63
2023/07/22 02:42:24;;;;;;;10.93;6.78;;;;;;;;;;5049503;28;20037;-63
2023/07/22 02:44:52;;;;;;;11.05;6.75;;;;;;;;;;5049154;28;20050;-62
2023/07/22 02:47:18;;;;;;;9.40;6.65;;;;;;;;;;5044433;28;20112;-67
2023/07/22 02:49:43;;;;;;;11.13;6.70;;;;;;;;;;5049101;28;20125;-62
2023/07/22 02:52:09;;;;;;;10.65;6.75;;;;;;;;;;5051014;28;20078;-62
2023/07/22 02:55:00;;;;;;;11.35;6.80;;;;;;;;;;5049412;28;20052;-62
2023/07/22 02:57:25;;;;;;;10.70;6.55;;;;;;;;;;5030564;28;20443;-63
2023/07/22 02:59:51;;;;;;;9.73;6.40;;;;;;;;;;5034404;28;20128;-62
2023/07/22 03:02:16;;;;;;;9.82;6.32;;;;;;;;;;5042285;28;20030;-68
2023/07/22 03:04:41;;;;;;;11.32;6.90;;;;;;;;;;5039737;28;20072;-61
2023/07/22 03:07:07;;;;;;;10.95;6.90;;;;;;;;;;5042551;28;20035;-62
2023/07/22 03:09:32;;;;;;;9.75;6.55;;;;;;;;;;5033523;28;20033;-63
2023/07/22 03:11:57;;;;;;;11.95;6.82;;;;;;;;;;5046699;28;20044;-65
2023/07/22 03:14:23;;;;;;;10.13;6.25;;;;;;;;;;5038878;28;20033;-63
2023/07/22 03:16:49;;;;;;;12.32;6.35;;;;;;;;;;5031298;28;20030;-62
2023/07/22 03:19:14;;;;;;;11.93;6.40;;;;;;;;;;5046374;28;20040;-63
2023/07/22 03:21:39;;;;;;;10.65;6.35;;;;;;;;;;5048041;28;20112;-62
2023/07/22 03:24:07;;;;;;;12.73;6.60;;;;;;;;;;5068013;28;20044;-62
2023/07/22 03:26:33;;;;;;;11.52;6.68;;;;;;;;;;5040070;28;20068;-62
2023/07/22 03:28:58;;;;;;;10.55;6.90;;;;;;;;;;5036787;28;20126;-62
2023/07/22 03:31:24;;;;;;;12.55;7.38;;;;;;;;;;5039101;28;20037;-62
2023/07/22 03:33:49;;;;;;;11.07;7.03;;;;;;;;;;5030891;28;20037;-62
2023/07/22 03:36:15;;;;;;;13.52;7.10;;;;;;;;;;5038047;28;20489;-63
2023/07/22 03:38:41;;;;;;;11.73;7.18;;;;;;;;;;5030297;28;20044;-62
2023/07/22 03:41:06;;;;;;;13.68;6.53;;;;;;;;;;5030964;28;20406;-62
2023/07/22 03:43:32;;;;;;;12.48;6.80;;;;;;;;;;5029533;28;20049;-64
2023/07/22 03:45:57;;;;;;;11.75;6.70;;;;;;;;;;5048252;28;20041;-63
2023/07/22 03:48:22;;;;;;;11.48;6.30;;;;;;;;;;5029940;28;20028;-64
2023/07/22 03:50:48;;;;;;;9.45;6.22;;;;;;;;;;5031380;28;20088;-62
2023/07/22 03:53:13;;;;;;;10.82;6.60;;;;;;;;;;5051595;28;20040;-62
2023/07/22 03:55:39;;;;;;;13.13;7.00;;;;;;;;;;5042835;28;20029;-62
2023/07/22 03:58:04;;;;;;;10.75;6.40;;;;;;;;;;5051629;28;20029;-62
2023/07/22 04:00:31;;;;;;;14.55;6.40;;;;;;;;;;5053329;28;20120;-63
2023/07/22 04:02:56;;;;;;;11.15;6.40;;;;;;;;;;5041002;28;20037;-62
2023/07/22 04:05:21;;;;;;;10.65;6.10;;;;;;;;;;5036700;28;20033;-65
2023/07/22 04:07:47;;;;;;;10.68;6.40;;;;;;;;;;5034495;28;20030;-62
2023/07/22 04:10:12;;;;;;;11.13;6.68;;;;;;;;;;5034095;28;20140;-64
2023/07/22 04:12:38;;;;;;;11.55;6.30;;;;;;;;;;5034427;28;20041;-64
2023/07/22 04:15:03;;;;;;;10.70;6.47;;;;;;;;;;5057622;28;20037;-64
2023/07/22 04:17:29;;;;;;;9.27;6.15;;;;;;;;;;5054118;28;20037;-63
2023/07/22 04:19:54;;;;;;;10.00;6.10;;;;;;;;;;5054686;28;20385;-63
2023/07/22 04:22:22;;;;;;;10.27;6.43;;;;;;;;;;5046125;28;20025;-68
2023/07/22 04:24:50;;;;;;;10.25;6.30;;;;;;;;;;5058164;28;20106;-63
2023/07/22 04:27:17;;;;;;;11.18;6.45;;;;;;;;;;5040896;28;20055;-63
2023/07/22 04:29:42;;;;;;;9.50;5.95;;;;;;;;;;5053806;28;20219;-63
2023/07/22 04:32:08;;;;;;;13.60;6.40;;;;;;;;;;5054879;28;20469;-63
2023/07/22 04:34:34;;;;;;;11.32;6.13;;;;;;;;;;5048862;28;20037;-63
2023/07/22 04:36:59;;;;;;;12.43;6.60;;;;;;;;;;5037409;28;20041;-62
2023/07/22 04:39:25;;;;;;;11.45;5.70;;;;;;;;;;5051111;28;20035;-66
2023/07/22 04:41:51;;;;;;;12.27;5.85;;;;;;;;;;5054593;28;20496;-62
2023/07/22 04:44:18;;;;;;;11.13;5.93;;;;;;;;;;5062392;28;20056;-63
2023/07/22 04:46:44;;;;;;;11.55;6.03;;;;;;;;;;5039438;28;20030;-63
2023/07/22 04:49:09;;;;;;;12.75;5.90;;;;;;;;;;5045047;28;20040;-64
2023/07/22 04:51:35;;;;;;;11.30;5.95;;;;;;;;;;5053887;28;20398;-63
2023/07/22 04:54:00;;;;;;;12.95;6.22;;;;;;;;;;5041937;28;20033;-62
2023/07/22 04:56:25;;;;;;;9.93;6.03;;;;;;;;;;5051719;28;20112;-66
2023/07/22 04:58:51;;;;;;;9.50;5.78;;;;;;;;;;5053540;28;20021;-62
2023/07/22 05:01:16;;;;;;;10.85;6.28;;;;;;;;;;5054336;28;20029;-62
2023/07/22 05:03:42;;;;;;;11.23;6.45;;;;;;;;;;5050605;28;20036;-62
2023/07/22 05:06:08;;;;;;;13.50;6.00;;;;;;;;;;5050260;28;20604;-63
2023/07/22 05:08:34;;;;;;;13.40;6.32;;;;;;;;;;5049533;28;20108;-62
2023/07/22 05:10:59;;;;;;;10.80;6.68;;;;;;;;;;5054069;28;20082;-62
2023/07/22 05:13:25;;;;;;;10.82;6.25;;;;;;;;;;5045502;28;20033;-69
2023/07/22 05:15:50;;;;;;;13.43;6.45;;;;;;;;;;5060222;28;20055;-62
2023/07/22 05:18:16;;;;;;;13.98;7.20;;;;;;;;;;5040768;28;21598;-62
2023/07/22 05:20:41;;;;;;;12.45;6.65;;;;;;;;;;5050963;28;20025;-65
2023/07/22 05:23:07;;;;;;;11.68;6.60;;;;;;;;;;5034409;28;20033;-63
2023/07/22 05:25:32;;;;;;;12.43;7.15;;;;;;;;;;5037457;28;20025;-63
2023/07/22 05:27:58;;;;;;;13.13;6.47;;;;;;;;;;5051874;28;20025;-62
2023/07/22 05:30:23;;;;;;;10.82;6.50;;;;;;;;;;5052989;28;20029;-61
2023/07/22 05:32:52;;;;;;;13.27;6.65;;;;;;;;;;5053068;28;20041;-62
2023/07/22 05:35:17;;;;;;;12.60;6.45;;;;;;;;;;5044506;28;20025;-62
2023/07/22 05:37:42;;;;;;;10.48;6.47;;;;;;;;;;5032156;28;20372;-62
2023/07/22 05:40:09;;;;;;;14.35;6.78;;;;;;;;;;5046394;28;20040;-62
2023/07/22 05:42:35;;;;;;;11.02;6.03;;;;;;;;;;5049435;28;20421;-61
2023/07/22 05:45:00;;;;;;;11.55;7.18;;;;;;;;;;5041559;28;20137;-62
2023/07/22 05:47:25;;;;;;;14.68;7.03;;;;;;;;;;5048324;28;20032;-65
2023/07/22 05:49:51;;;;;;;10.73;6.28;;;;;;;;;;5032277;28;20386;-62
2023/07/22 05:52:17;;;;;;;11.63;6.50;;;;;;;;;;5033088;28;20372;-62
2023/07/22 05:54:44;;;;;;;9.00;5.85;;;;;;;;;;5046352;28;20025;-62
2023/07/22 05:57:10;;;;;;;11.60;5.93;;;;;;;;;;5053372;28;20033;-64
2023/07/22 05:59:36;;;;;;;12.15;6.28;;;;;;;;;;5052401;28;20025;-62
2023/07/22 06:02:03;;;;;;;11.98;6.07;;;;;;;;;;5052539;28;20029;-62
2023/07/22 06:04:28;;;;;;;12.32;6.18;;;;;;;;;;5044583;28;20516;-66
2023/07/22 06:06:53;;;;;;;11.27;5.80;;;;;;;;;;5032782;28;20029;-62
2023/07/22 06:09:20;;;;;;;10.60;5.85;;;;;;;;;;5040502;28;20069;-63
2023/07/22 06:11:45;;;;;;;10.18;5.60;;;;;;;;;;5052406;28;20465;-62
2023/07/22 06:14:10;;;;;;;9.68;6.00;;;;;;;;;;5055483;28;20029;-62
2023/07/22 06:16:36;;;;;;;9.75;5.72;;;;;;;;;;5065856;28;20032;-62
2023/07/22 06:19:01;;;;;;;10.55;5.88;;;;;;;;;;5053259;28;20384;-62
2023/07/22 06:21:32;;;;;;;9.30;5.55;;;;;;;;;;5052635;28;20029;-66
2023/07/22 06:23:57;;;;;;;10.68;6.00;;;;;;;;;;5051753;28;20432;-62
2023/07/22 06:26:22;;;;;;;10.88;5.80;;;;;;;;;;5036663;28;20049;-61
2023/07/22 06:28:48;;;;;;;9.45;4.95;;;;;;;;;;5034896;28;20029;-62
2023/07/22 06:31:13;;;;;;;10.70;6.13;;;;;;;;;;5053391;28;20025;-62
2023/07/22 06:33:39;;;;;;;10.75;6.18;;;;;;;;;;5051912;28;20033;-62
2023/07/22 06:36:04;;;;;;;9.50;5.70;;;;;;;;;;5052054;28;20377;-62
2023/07/22 06:38:30;;;;;;;11.30;5.65;;;;;;;;;;5052113;28;20039;-67
2023/07/22 06:40:55;;;;;;;11.65;6.57;;;;;;;;;;5040819;28;20119;-62
2023/07/22 06:43:21;;;;;;;12.55;6.22;;;;;;;;;;5047264;28;20090;-62
2023/07/22 06:45:47;;;;;;;12.27;6.57;;;;;;;;;;5071414;28;20024;-62
2023/07/22 06:48:12;;;;;;;11.93;6.35;;;;;;;;;;5072700;28;20036;-62
2023/07/22 06:50:37;;;;;;;10.75;6.43;;;;;;;;;;5056031;28;20411;-62
2023/07/22 06:53:03;;;;;;;11.35;6.70;;;;;;;;;;5051799;28;20037;-62
2023/07/22 06:55:29;;;;;;;13.82;6.50;;;;;;;;;;5072297;28;20035;-66
2023/07/22 06:57:57;;;;;;;11.32;6.18;;;;;;;;;;5071591;28;20029;-62
2023/07/22 07:00:23;;;;;;;12.80;6.55;;;;;;;;;;5064560;28;20044;-62
2023/07/22 07:02:50;;;;;;;12.07;6.60;;;;;;;;;;5051029;28;20510;-62
2023/07/22 07:05:16;;;;;;;11.73;6.50;;;;;;;;;;5051055;28;20474;-62
2023/07/22 07:07:42;;;;;;;12.63;6.53;;;;;;;;;;5046521;28;20033;-63
2023/07/22 07:10:08;;;;;;;12.70;7.95;;;;;;;;;;5051225;28;20112;-62
2023/07/22 07:12:33;;;;;;;12.45;7.32;;;;;;;;;;5071580;28;20400;-66
2023/07/22 07:14:58;;;;;;;10.95;7.00;;;;;;;;;;5072033;28;20035;-63
2023/07/22 07:17:24;;;;;;;11.43;6.93;;;;;;;;;;5072102;28;20059;-62
2023/07/22 07:19:49;;;;;;;12.57;6.65;;;;;;;;;;5071330;28;20055;-62
2023/07/22 07:22:14;;;;;;;12.60;6.93;;;;;;;;;;5071544;28;20035;-62
2023/07/22 07:24:40;;;;;;;13.15;6.82;;;;;;;;;;5065158;28;20025;-62
2023/07/22 07:27:06;;;;;;;12.55;6.63;;;;;;;;;;5057658;28;20028;-62
2023/07/22 07:29:31;;;;;;;12.40;6.85;;;;;;;;;;5051369;28;20033;-67
2023/07/22 07:31:57;;;;;;;12.27;6.20;;;;;;;;;;5042099;28;20026;-62
2023/07/22 07:34:22;;;;;;;11.95;6.93;;;;;;;;;;5033483;28;20394;-63
2023/07/22 07:36:48;;;;;;;12.80;6.30;;;;;;;;;;5051832;28;20036;-62
2023/07/22 07:39:14;;;;;;;8.98;5.68;;;;;;;;;;5051818;28;20028;-62
2023/07/22 07:41:39;;;;;;;9.38;5.32;;;;;;;;;;5050885;28;20029;-62
2023/07/22 07:44:05;;;;;;;12.32;6.43;;;;;;;;;;5051188;28;20505;-62
2023/07/22 07:46:30;;;;;;;10.02;6.15;;;;;;;;;;5051578;28;20033;-63
2023/07/22 07:49:03;;;;;;;9.57;5.57;;;;;;;;;;5054152;28;20032;-63
2023/07/22 07:51:30;;;;;;;10.73;6.53;;;;;;;;;;5031611;28;20112;-63
2023/07/22 07:53:57;;;;;;;10.45;5.75;;;;;;;;;;5037342;28;20143;-62
2023/07/22 07:56:22;;;;;;;10.38;5.82;;;;;;;;;;5051488;28;20021;-62
2023/07/22 07:58:49;;;;;;;11.38;6.90;;;;;;;;;;5052071;28;20086;-62
2023/07/22 08:01:15;;;;;;;11.75;6.45;;;;;;;;;;5055842;28;20032;-62
2023/07/22 08:03:41;;;;;;;13.18;6.32;;;;;;;;;;5044533;28;20040;-62
2023/07/22 08:06:08;;;;;;;11.75;5.97;;;;;;;;;;5065131;28;20037;-62
2023/07/22 08:08:33;;;;;;;9.95;6.28;;;;;;;;;;5070954;28;20385;-66
2023/07/22 08:11:04;;;;;;;10.52;6.30;;;;;;;;;;5065198;28;20032;-61
2023/07/22 08:13:31;;;;;;;10.13;6.10;;;;;;;;;;5052428;28;20074;-62
2023/07/22 08:16:05;;;;;;;10.25;6.00;;;;;;;;;;5049733;28;20087;-62
2023/07/22 08:18:31;;;;;;;9.77;5.70;;;;;;;;;;5054278;28;20414;-63
2023/07/22 08:20:57;;;;;;;11.05;5.80;;;;;;;;;;5030488;28;20033;-62
2023/07/22 08:23:23;;;;;;;9.13;5.95;;;;;;;;;;5031023;28;20447;-62
2023/07/22 08:25:49;;;;;;;8.68;5.38;;;;;;;;;;5030568;28;20084;-62
2023/07/22 08:28:14;;;;;;;9.73;5.82;;;;;;;;;;5031310;28;20466;-62
2023/07/22 08:30:40;;;;;;;12.13;6.68;;;;;;;;;;5029024;28;20409;-63
2023/07/22 08:33:09;;;;;;;10.10;6.13;;;;;;;;;;5031316;28;20530;-62
2023/07/22 08:35:36;;;;;;;12.15;6.07;;;;;;;;;;5047495;28;20052;-67
2023/07/22 08:38:02;;;;;;;8.57;5.45;;;;;;;;;;5051048;28;20038;-62
2023/07/22 08:40:32;;;;;;;9.57;6.20;;;;;;;;;;5053845;28;20032;-63
2023/07/22 08:42:58;;;;;;;11.73;6.13;;;;;;;;;;5032853;28;20026;-62
2023/07/22 08:45:30;;;;;;;12.45;6.10;;;;;;;;;;5041086;28;20052;-63
2023/07/22 08:47:58;;;;;;;11.93;6.20;;;;;;;;;;5039077;28;20064;-61
2023/07/22 08:50:29;;;;;;;12.52;6.53;;;;;;;;;;5035165;28;20043;-61
2023/07/22 08:52:54;;;;;;;10.05;5.90;;;;;;;;;;5054244;28;20063;-61
2023/07/22 08:55:20;;;;;;;8.85;5.78;;;;;;;;;;5073524;28;20060;-61
2023/07/22 08:57:48;;;;;;;9.18;5.72;;;;;;;;;;5073406;28;20021;-61
2023/07/22 09:00:14;;;;;;;12.32;5.75;;;;;;;;;;5073973;28;20028;-61
2023/07/22 09:02:40;;;;;;;10.80;6.25;;;;;;;;;;5041819;28;20165;-66
2023/07/22 09:05:06;;;;;;;7.57;4.80;;;;;;;;;;5054484;28;20032;-61
2023/07/22 09:07:32;;;;;;;7.90;4.38;;;;;;;;;;5061751;28;20029;-62
2023/07/22 09:09:58;;;;;;;8.70;5.28;;;;;;;;;;5051460;28;20624;-63
2023/07/22 09:12:24;;;;;;;10.02;5.13;;;;;;;;;;5050575;28;20503;-62
2023/07/22 09:14:50;;;;;;;9.48;4.90;;;;;;;;;;5062424;28;20072;-63
2023/07/22 09:17:16;;;;;;;7.93;4.30;;;;;;;;;;5074410;28;20112;-62
2023/07/22 09:19:41;;;;;;;8.63;5.35;;;;;;;;;;5070750;28;20105;-66
2023/07/22 09:22:07;;;;;;;7.13;4.47;;;;;;;;;;5053781;28;20032;-62
2023/07/22 09:24:33;;;;;;;9.10;4.97;;;;;;;;;;5044182;28;20029;-61
2023/07/22 09:26:59;;;;;;;9.40;4.45;;;;;;;;;;5051825;28;20020;-63
2023/07/22 09:29:35;;;;;;;9.10;4.65;;;;;;;;;;5052234;28;20104;-62
2023/07/22 09:32:01;;;;;;;7.53;4.22;;;;;;;;;;5052917;28;20227;-62
2023/07/22 09:34:27;;;;;;;6.95;4.53;;;;;;;;;;5055117;28;20124;-61
2023/07/22 09:36:56;;;;;;;7.15;4.53;;;;;;;;;;5052042;28;20036;-61
2023/07/22 09:39:23;;;;;;;7.72;4.30;;;;;;;;;;5052127;28;20040;-61
2023/07/22 09:41:54;;;;;;;8.82;4.10;;;;;;;;;;5050882;28;20130;-61
2023/07/22 09:44:20;;;;;;;7.18;4.18;;;;;;;;;;5052960;28;20084;-61
2023/07/22 09:46:49;;;;;;;8.65;4.60;;;;;;;;;;5052764;28;20402;-61
2023/07/22 09:49:17;;;;;;;6.78;3.83;;;;;;;;;;5048762;28;20498;-62
2023/07/22 09:51:42;;;;;;;6.55;4.40;;;;;;;;;;5032094;28;20025;-65
2023/07/22 09:54:08;;;;;;;7.63;5.03;;;;;;;;;;5061543;28;20136;-61
2023/07/22 09:56:46;;;;;;;8.10;4.70;;;;;;;;;;5074671;28;20032;-61
2023/07/22 09:59:12;;;;;;;8.25;4.70;;;;;;;;;;5041539;28;20033;-61
2023/07/22 10:01:39;;;;;;;13.75;5.10;;;;;;;;;;5033101;28;20029;-65
2023/07/22 10:04:05;;;;;;;8.85;4.95;;;;;;;;;;5036674;28;20124;-62
2023/07/22 10:06:32;;;;;;;8.77;4.93;;;;;;;;;;5037566;28;20029;-62
2023/07/22 10:09:07;;;;;;;6.53;4.72;;;;;;;;;;5040416;28;20032;-63
2023/07/22 10:11:34;;;;;;;8.60;4.95;;;;;;;;;;5052782;28;20462;-62
2023/07/22 10:14:00;;;;;;;7.90;4.68;;;;;;;;;;5051836;28;20033;-63
2023/07/22 10:16:26;;;;;;;9.18;4.50;;;;;;;;;;5053112;28;20033;-63
2023/07/22 10:18:51;;;;;;;5.47;3.70;;;;;;;;;;5054634;28;20039;-62
2023/07/22 10:21:18;;;;;;;6.93;3.38;;;;;;;;;;5072611;28;20493;-62
2023/07/22 10:23:45;;;;;;;7.28;3.92;;;;;;;;;;5056692;28;20037;-67
2023/07/22 10:26:13;;;;;;;8.77;3.63;;;;;;;;;;5047150;28;20110;-62
2023/07/22 10:28:40;;;;;;;6.53;3.50;;;;;;;;;;5037028;28;20025;-63
2023/07/22 10:31:06;;;;;;;7.97;4.45;;;;;;;;;;5058601;28;20044;-63
2023/07/22 10:33:31;;;;;;;6.53;4.05;;;;;;;;;;5050202;28;20037;-63
2023/07/22 10:36:05;;;;;;;7.30;3.70;;;;;;;;;;5042904;28;20520;-62
2023/07/22 10:38:31;;;;;;;10.65;4.72;;;;;;;;;;5032427;28;20034;-62
2023/07/22 10:40:57;;;;;;;7.82;4.65;;;;;;;;;;5044322;28;20095;-62
2023/07/22 10:43:30;;;;;;;7.03;4.00;;;;;;;;;;5051846;28;20478;-63
2023/07/22 10:45:58;;;;;;;6.20;4.20;;;;;;;;;;5050960;28;20064;-63
2023/07/22 10:48:27;;;;;;;10.10;4.93;;;;;;;;;;5048730;28;20037;-62
2023/07/22 10:50:58;;;;;;;10.07;4.38;;;;;;;;;;5041971;28;20448;-63
2023/07/22 10:53:32;;;;;;;7.45;4.40;;;;;;;;;;5051680;28;20117;-63
2023/07/22 10:56:09;;;;;;;6.93;4.50;;;;;;;;;;5049990;28;20428;-62
2023/07/22 10:58:46;;;;;;;5.82;4.10;;;;;;;;;;5071975;28;20040;-62
2023/07/22 11:01:33;;;;;;;7.93;3.85;;;;;;;;;;5071654;28;20068;-62
2023/07/22 11:04:16;;;;;;;7.72;4.25;;;;;;;;;;5071354;28;20028;-62
2023/07/22 11:06:48;;;;;;;4.95;3.53;;;;;;;;;;5069994;28;20071;-62
2023/07/22 11:09:34;;;;;;;5.68;3.50;;;;;;;;;;5051974;28;20052;-62
2023/07/22 11:12:00;;;;;;;5.65;3.90;;;;;;;;;;5037939;28;20056;-61
2023/07/22 11:14:28;;;;;;;5.57;3.40;;;;;;;;;;5032006;28;20033;-63
2023/07/22 11:16:57;;;;;;;6.65;3.92;;;;;;;;;;5044107;28;20064;-62
2023/07/22 11:19:24;;;;;;;7.07;3.70;;;;;;;;;;5051875;28;20043;-62
2023/07/22 11:21:51;;;;;;;5.07;3.17;;;;;;;;;;5051069;28;20189;-63
2023/07/22 11:24:17;;;;;;;8.07;3.53;;;;;;;;;;5051364;28;20470;-62
2023/07/22 11:26:44;;;;;;;7.28;3.40;;;;;;;;;;5051778;28;20041;-63
2023/07/22 11:29:10;;;;;;;6.50;3.60;;;;;;;;;;5051975;28;20021;-63
2023/07/22 11:31:37;;;;;;;4.70;3.00;;;;;;;;;;5033584;28;20037;-62
2023/07/22 11:34:05;;;;;;;5.40;3.05;;;;;;;;;;5070765;28;20089;-63
2023/07/22 11:36:31;;;;;;;5.22;3.17;;;;;;;;;;5064985;28;20033;-62
2023/07/22 11:39:12;;;;;;;7.75;3.00;;;;;;;;;;5050889;28;20032;-62
2023/07/22 11:41:38;;;;;;;5.15;2.90;;;;;;;;;;5052381;28;20351;-62
2023/07/22 11:44:09;;;;;;;7.65;3.40;;;;;;;;;;5050131;28;20622;-61
2023/07/22 11:46:35;;;;;;;5.13;2.90;;;;;;;;;;5052519;28;20116;-63
2023/07/22 11:49:02;;;;;;;6.20;3.30;;;;;;;;;;5050818;28;20029;-62
2023/07/22 11:51:28;;;;;;;6.05;2.95;;;;;;;;;;5037805;28;20120;-63
2023/07/22 11:53:54;;;;;;;4.13;2.65;;;;;;;;;;5030805;28;20104;-62
2023/07/22 11:56:27;;;;;;;5.40;2.88;;;;;;;;;;5031911;28;20048;-61
2023/07/22 11:58:55;;;;;;;5.25;2.83;;;;;;;;;;5041644;28;20113;-62
2023/07/22 12:01:21;;;;;;;4.15;3.00;;;;;;;;;;5049185;28;20051;-62
2023/07/22 12:03:46;;;;;;;6.25;2.90;;;;;;;;;;5051419;28;20025;-64
2023/07/22 12:06:13;;;;;;;4.55;2.75;;;;;;;;;;5050321;28;20032;-62
2023/07/22 12:08:47;;;;;;;4.80;2.85;;;;;;;;;;5045688;28;20033;-62
2023/07/22 12:11:23;;;;;;;4.95;2.63;;;;;;;;;;5030769;28;20546;-61
2023/07/22 12:14:07;;;;;;;4.00;2.80;;;;;;;;;;5032345;28;20064;-68
2023/07/22 12:16:34;;;;;;;4.88;2.67;;;;;;;;;;5054351;28;20127;-62
2023/07/22 12:19:01;;;;;;;5.63;2.50;;;;;;;;;;5054160;28;20036;-63
2023/07/22 12:21:27;;;;;;;6.13;2.72;;;;;;;;;;5046805;28;20061;-63
2023/07/22 12:23:53;;;;;;;4.90;2.90;;;;;;;;;;5060655;28;20445;-62
2023/07/22 12:26:18;;;;;;;4.60;2.60;;;;;;;;;;5061987;28;20032;-62
2023/07/22 12:28:43;;;;;;;3.60;2.47;;;;;;;;;;5058221;28;20094;-62
2023/07/22 12:31:09;;;;;;;3.80;2.58;;;;;;;;;;5054111;28;20261;-62
2023/07/22 12:33:35;;;;;;;3.92;2.58;;;;;;;;;;5053864;28;20116;-62
2023/07/22 12:36:00;;;;;;;2.92;2.20;;;;;;;;;;5053766;28;20423;-62
2023/07/22 12:38:25;;;;;;;5.22;2.78;;;;;;;;;;5054914;28;20029;-62
2023/07/22 12:40:51;;;;;;;4.35;2.20;;;;;;;;;;5054382;28;20029;-66
2023/07/22 12:43:16;;;;;;;4.32;2.60;;;;;;;;;;5051151;28;20496;-62
2023/07/22 12:45:41;;;;;;;4.45;2.60;;;;;;;;;;5034729;28;20037;-62
2023/07/22 12:48:09;;;;;;;3.97;2.63;;;;;;;;;;5038740;28;20032;-62
2023/07/22 12:50:34;;;;;;;6.18;2.47;;;;;;;;;;5054264;28;20086;-62
2023/07/22 12:53:00;;;;;;;4.43;2.30;;;;;;;;;;5067965;28;20032;-63
2023/07/22 12:55:25;;;;;;;4.25;2.35;;;;;;;;;;5074756;28;20028;-62
2023/07/22 12:57:51;;;;;;;3.70;2.55;;;;;;;;;;5074267;28;20032;-67
2023/07/22 13:00:17;;;;;;;4.95;2.60;;;;;;;;;;5074590;28;20111;-62
2023/07/22 13:02:42;;;;;;;5.20;2.30;;;;;;;;;;5067002;28;20029;-62
2023/07/22 13:05:08;;;;;;;4.43;2.35;;;;;;;;;;5051769;28;20489;-62
2023/07/22 13:07:34;;;;;;;3.20;2.20;;;;;;;;;;5063758;28;20033;-62
2023/07/22 13:10:02;;;;;;;4.22;2.30;;;;;;;;;;5061353;28;20119;-63
2023/07/22 13:12:27;;;;;;;3.75;2.35;;;;;;;;;;5052974;28;20112;-62
2023/07/22 13:14:52;;;;;;;5.20;2.47;;;;;;;;;;5050597;28;20435;-66
2023/07/22 13:17:18;;;;;;;3.25;2.20;;;;;;;;;;5041101;28;20033;-62
2023/07/22 13:19:43;;;;;;;3.97;2.22;;;;;;;;;;5050992;28;20081;-62
2023/07/22 13:22:09;;;;;;;3.42;2.15;;;;;;;;;;5053109;28;20470;-62
2023/07/22 13:24:35;;;;;;;3.88;2.10;;;;;;;;;;5053189;28;20028;-62
2023/07/22 13:27:00;;;;;;;7.05;2.20;;;;;;;;;;5053165;28;20036;-62
2023/07/22 13:29:26;;;;;;;5.40;2.42;;;;;;;;;;5053887;28;20025;-61
2023/07/22 13:31:51;;;;;;;5.07;2.42;;;;;;;;;;5053881;28;20032;-61
2023/07/22 13:34:16;;;;;;;4.80;2.70;;;;;;;;;;5047751;28;20041;-62
2023/07/22 13:36:42;;;;;;;3.42;2.50;;;;;;;;;;5036221;28;20444;-62
2023/07/22 13:39:07;;;;;;;4.10;2.40;;;;;;;;;;5033525;28;20029;-62
2023/07/22 13:41:32;;;;;;;4.35;2.17;;;;;;;;;;5049707;28;20061;-61
2023/07/22 13:43:58;;;;;;;3.42;2.47;;;;;;;;;;5051574;28;20105;-64
2023/07/22 13:46:23;;;;;;;4.07;2.75;;;;;;;;;;5053123;28;20029;-61
2023/07/22 13:48:48;;;;;;;3.80;2.88;;;;;;;;;;5052087;28;20138;-65
2023/07/22 13:51:14;;;;;;;5.22;3.05;;;;;;;;;;5049640;28;20037;-62
2023/07/22 13:53:39;;;;;;;5.40;3.03;;;;;;;;;;5056579;28;20478;-62
2023/07/22 13:56:05;;;;;;;5.07;2.97;;;;;;;;;;5052641;28;20029;-61
2023/07/22 13:58:30;;;;;;;4.55;2.90;;;;;;;;;;5053359;28;20448;-61
2023/07/22 14:00:55;;;;;;;5.05;2.80;;;;;;;;;;5052912;28;20036;-65
2023/07/22 14:03:21;;;;;;;6.18;2.67;;;;;;;;;;5051696;28;20028;-62
2023/07/22 14:05:47;;;;;;;4.35;2.75;;;;;;;;;;5049584;28;20084;-61
2023/07/22 14:08:12;;;;;;;4.20;2.70;;;;;;;;;;5049334;28;20120;-63
2023/07/22 14:10:37;;;;;;;4.43;2.40;;;;;;;;;;5073167;28;20028;-63
2023/07/22 14:13:03;;;;;;;4.40;2.83;;;;;;;;;;5060712;28;20118;-62
2023/07/22 14:15:28;;;;;;;6.43;2.60;;;;;;;;;;5043066;28;20037;-62
2023/07/22 14:17:54;;;;;;;3.60;2.50;;;;;;;;;;5033162;28;20044;-63
2023/07/22 14:20:19;;;;;;;4.65;2.65;;;;;;;;;;5060010;28;20025;-62
2023/07/22 14:22:45;;;;;;;4.13;2.63;;;;;;;;;;5072732;28;20149;-62
2023/07/22 14:25:10;;;;;;;6.28;2.58;;;;;;;;;;5072030;28;20457;-62
2023/07/22 14:27:38;;;;;;;5.47;2.50;;;;;;;;;;5072975;28;20108;-62
2023/07/22 14:30:05;;;;;;;5.47;2.50;;;;;;;;;;5071627;28;20557;-63
2023/07/22 14:32:31;;;;;;;5.00;2.50;;;;;;;;;;5041888;28;20449;-62